sensor_id;sensor_type;location;lat;lon;timestamp;P1;durP1;ratioP1;P2;durP2;ratioP2
49590;SDS011;35496;-21.974;-46.800;2023-07-02T00:02:24;14.57;;;8.25;;
49590;SDS011;35496;-21.974;-46.800;2023-07-02T00:04:50;15.48;;;8.88;;
49590;SDS011;35496;-21.974;-46.800;2023-07-02T00:07:16;20.83;;;10.98;;
49590;SDS011;35496;-21.974;-46.800;2023-07-02T00:09:42;18.27;;;10.48;;
49590;SDS011;35496;-21.974;-46.800;2023-07-02T00:12:08;20.23;;;9.85;;
49590;SDS011;35496;-21.974;-46.800;2023-07-02T00:14:35;15.65;;;10.10;;
49590;SDS011;35496;-21.974;-46.800;2023-07-02T00:17:01;15.60;;;9.45;;
49590;SDS011;35496;-21.974;-46.800;2023-07-02T00:19:27;15.15;;;10.32;;
49590;SDS011;35496;-21.974;-46.800;2023-07-02T00:21:53;14.25;;;9.98;;
49590;SDS011;35496;-21.974;-46.800;2023-07-02T00:24:19;24.08;;;9.93;;
49590;SDS011;35496;-21.974;-46.800;2023-07-02T00:26:45;12.85;;;9.20;;
49590;SDS011;35496;-21.974;-46.800;2023-07-02T00:29:11;13.40;;;9.50;;
49590;SDS011;35496;-21.974;-46.800;2023-07-02T00:31:37;13.98;;;9.88;;
49590;SDS011;35496;-21.974;-46.800;2023-07-02T00:34:03;19.10;;;10.65;;
49590;SDS011;35496;-21.974;-46.800;2023-07-02T00:36:30;14.80;;;9.80;;
49590;SDS011;35496;-21.974;-46.800;2023-07-02T00:38:57;11.68;;;9.93;;
49590;SDS011;35496;-21.974;-46.800;2023-07-02T00:41:23;11.98;;;9.55;;
49590;SDS011;35496;-21.974;-46.800;2023-07-02T00:43:50;15.25;;;9.57;;
49590;SDS011;35496;-21.974;-46.800;2023-07-02T00:46:20;13.73;;;9.07;;
49590;SDS011;35496;-21.974;-46.800;2023-07-02T00:48:46;26.25;;;9.98;;
49590;SDS011;35496;-21.974;-46.800;2023-07-02T00:51:14;18.00;;;9.73;;
49590;SDS011;35496;-21.974;-46.800;2023-07-02T00:53:40;16.63;;;9.55;;
49590;SDS011;35496;-21.974;-46.800;2023-07-02T00:56:06;18.17;;;11.90;;
49590;SDS011;35496;-21.974;-46.800;2023-07-02T00:58:37;12.40;;;10.40;;
49590;SDS011;35496;-21.974;-46.800;2023-07-02T01:01:03;23.42;;;12.35;;
49590;SDS011;35496;-21.974;-46.800;2023-07-02T01:03:29;11.82;;;9.38;;
49590;SDS011;35496;-21.974;-46.800;2023-07-02T01:06:01;14.82;;;11.00;;
49590;SDS011;35496;-21.974;-46.800;2023-07-02T01:08:28;17.83;;;12.68;;
49590;SDS011;35496;-21.974;-46.800;2023-07-02T01:10:54;17.83;;;11.13;;
49590;SDS011;35496;-21.974;-46.800;2023-07-02T01:13:21;21.52;;;11.88;;
49590;SDS011;35496;-21.974;-46.800;2023-07-02T01:15:47;21.63;;;12.00;;
49590;SDS011;35496;-21.974;-46.800;2023-07-02T01:18:14;18.27;;;11.82;;
49590;SDS011;35496;-21.974;-46.800;2023-07-02T01:20:41;19.15;;;11.40;;
49590;SDS011;35496;-21.974;-46.800;2023-07-02T01:23:07;15.45;;;10.57;;
49590;SDS011;35496;-21.974;-46.800;2023-07-02T01:25:34;16.42;;;10.00;;
49590;SDS011;35496;-21.974;-46.800;2023-07-02T01:28:02;17.48;;;11.30;;
49590;SDS011;35496;-21.974;-46.800;2023-07-02T01:30:28;16.13;;;10.43;;
49590;SDS011;35496;-21.974;-46.800;2023-07-02T01:32:54;13.95;;;10.85;;
49590;SDS011;35496;-21.974;-46.800;2023-07-02T01:35:20;16.65;;;11.43;;
49590;SDS011;35496;-21.974;-46.800;2023-07-02T01:37:46;13.55;;;9.93;;
49590;SDS011;35496;-21.974;-46.800;2023-07-02T01:40:13;14.82;;;9.68;;
49590;SDS011;35496;-21.974;-46.800;2023-07-02T01:42:39;15.60;;;10.75;;
49590;SDS011;35496;-21.974;-46.800;2023-07-02T01:45:05;15.65;;;9.45;;
49590;SDS011;35496;-21.974;-46.800;2023-07-02T01:47:31;12.35;;;9.05;;
49590;SDS011;35496;-21.974;-46.800;2023-07-02T01:49:57;13.88;;;9.70;;
49590;SDS011;35496;-21.974;-46.800;2023-07-02T01:52:23;10.23;;;8.13;;
49590;SDS011;35496;-21.974;-46.800;2023-07-02T01:54:49;18.05;;;9.23;;
49590;SDS011;35496;-21.974;-46.800;2023-07-02T01:57:17;13.15;;;8.43;;
49590;SDS011;35496;-21.974;-46.800;2023-07-02T01:59:43;8.77;;;7.25;;
49590;SDS011;35496;-21.974;-46.800;2023-07-02T02:02:09;9.88;;;7.32;;
49590;SDS011;35496;-21.974;-46.800;2023-07-02T02:04:35;9.38;;;6.35;;
49590;SDS011;35496;-21.974;-46.800;2023-07-02T02:07:02;8.40;;;6.20;;
49590;SDS011;35496;-21.974;-46.800;2023-07-02T02:09:28;8.45;;;6.88;;
49590;SDS011;35496;-21.974;-46.800;2023-07-02T02:11:55;11.10;;;6.53;;
49590;SDS011;35496;-21.974;-46.800;2023-07-02T02:14:21;10.18;;;7.72;;
49590;SDS011;35496;-21.974;-46.800;2023-07-02T02:16:47;9.40;;;6.38;;
49590;SDS011;35496;-21.974;-46.800;2023-07-02T02:19:14;12.43;;;7.80;;
49590;SDS011;35496;-21.974;-46.800;2023-07-02T02:21:40;19.88;;;7.70;;
49590;SDS011;35496;-21.974;-46.800;2023-07-02T02:24:06;11.57;;;8.35;;
49590;SDS011;35496;-21.974;-46.800;2023-07-02T02:26:33;14.43;;;8.48;;
49590;SDS011;35496;-21.974;-46.800;2023-07-02T02:29:00;19.33;;;8.82;;
49590;SDS011;35496;-21.974;-46.800;2023-07-02T02:31:26;14.10;;;8.55;;
49590;SDS011;35496;-21.974;-46.800;2023-07-02T02:33:53;8.00;;;7.05;;
49590;SDS011;35496;-21.974;-46.800;2023-07-02T02:36:19;18.80;;;8.60;;
49590;SDS011;35496;-21.974;-46.800;2023-07-02T02:38:45;13.57;;;11.07;;
49590;SDS011;35496;-21.974;-46.800;2023-07-02T02:41:11;19.90;;;12.82;;
49590;SDS011;35496;-21.974;-46.800;2023-07-02T02:43:37;12.63;;;11.05;;
49590;SDS011;35496;-21.974;-46.800;2023-07-02T02:46:06;16.00;;;10.35;;
49590;SDS011;35496;-21.974;-46.800;2023-07-02T02:48:32;15.02;;;11.82;;
49590;SDS011;35496;-21.974;-46.800;2023-07-02T02:50:58;18.27;;;12.50;;
49590;SDS011;35496;-21.974;-46.800;2023-07-02T02:53:24;15.93;;;11.25;;
49590;SDS011;35496;-21.974;-46.800;2023-07-02T02:55:50;19.95;;;14.23;;
49590;SDS011;35496;-21.974;-46.800;2023-07-02T02:58:16;19.52;;;13.63;;
49590;SDS011;35496;-21.974;-46.800;2023-07-02T03:00:42;27.65;;;14.90;;
49590;SDS011;35496;-21.974;-46.800;2023-07-02T03:03:13;20.10;;;13.65;;
49590;SDS011;35496;-21.974;-46.800;2023-07-02T03:05:40;23.50;;;13.52;;
49590;SDS011;35496;-21.974;-46.800;2023-07-02T03:08:06;18.15;;;13.15;;
49590;SDS011;35496;-21.974;-46.800;2023-07-02T03:10:33;21.25;;;14.13;;
49590;SDS011;35496;-21.974;-46.800;2023-07-02T03:12:59;20.50;;;13.80;;
49590;SDS011;35496;-21.974;-46.800;2023-07-02T03:15:25;21.38;;;13.68;;
49590;SDS011;35496;-21.974;-46.800;2023-07-02T03:17:51;21.38;;;13.43;;
49590;SDS011;35496;-21.974;-46.800;2023-07-02T03:20:17;20.38;;;12.45;;
49590;SDS011;35496;-21.974;-46.800;2023-07-02T03:22:43;19.85;;;11.40;;
49590;SDS011;35496;-21.974;-46.800;2023-07-02T03:25:09;16.55;;;12.85;;
49590;SDS011;35496;-21.974;-46.800;2023-07-02T03:27:35;20.05;;;12.05;;
49590;SDS011;35496;-21.974;-46.800;2023-07-02T03:30:04;17.98;;;11.85;;
49590;SDS011;35496;-21.974;-46.800;2023-07-02T03:32:33;14.48;;;11.43;;
49590;SDS011;35496;-21.974;-46.800;2023-07-02T03:34:59;19.42;;;14.02;;
49590;SDS011;35496;-21.974;-46.800;2023-07-02T03:37:26;14.88;;;11.52;;
49590;SDS011;35496;-21.974;-46.800;2023-07-02T03:39:52;14.77;;;11.32;;
49590;SDS011;35496;-21.974;-46.800;2023-07-02T03:42:19;22.35;;;13.38;;
49590;SDS011;35496;-21.974;-46.800;2023-07-02T03:44:45;15.40;;;11.32;;
49590;SDS011;35496;-21.974;-46.800;2023-07-02T03:47:11;16.55;;;11.48;;
49590;SDS011;35496;-21.974;-46.800;2023-07-02T03:49:38;18.05;;;12.00;;
49590;SDS011;35496;-21.974;-46.800;2023-07-02T03:52:04;16.23;;;10.55;;
49590;SDS011;35496;-21.974;-46.800;2023-07-02T03:54:30;18.13;;;9.98;;
49590;SDS011;35496;-21.974;-46.800;2023-07-02T03:56:56;13.32;;;7.75;;
49590;SDS011;35496;-21.974;-46.800;2023-07-02T03:59:22;14.35;;;8.57;;
49590;SDS011;35496;-21.974;-46.800;2023-07-02T04:01:48;6.57;;;5.90;;
49590;SDS011;35496;-21.974;-46.800;2023-07-02T04:04:15;10.23;;;6.68;;
49590;SDS011;35496;-21.974;-46.800;2023-07-02T04:06:41;7.78;;;5.75;;
49590;SDS011;35496;-21.974;-46.800;2023-07-02T04:09:07;8.30;;;6.07;;
49590;SDS011;35496;-21.974;-46.800;2023-07-02T04:11:33;10.50;;;6.53;;
49590;SDS011;35496;-21.974;-46.800;2023-07-02T04:13:59;11.20;;;6.88;;
49590;SDS011;35496;-21.974;-46.800;2023-07-02T04:16:25;10.80;;;6.95;;
49590;SDS011;35496;-21.974;-46.800;2023-07-02T04:18:51;8.80;;;5.57;;
49590;SDS011;35496;-21.974;-46.800;2023-07-02T04:21:18;15.07;;;6.85;;
49590;SDS011;35496;-21.974;-46.800;2023-07-02T04:23:44;8.43;;;6.15;;
49590;SDS011;35496;-21.974;-46.800;2023-07-02T04:26:10;9.55;;;6.22;;
49590;SDS011;35496;-21.974;-46.800;2023-07-02T04:28:37;7.43;;;5.85;;
49590;SDS011;35496;-21.974;-46.800;2023-07-02T04:31:03;9.63;;;6.68;;
49590;SDS011;35496;-21.974;-46.800;2023-07-02T04:33:29;10.40;;;5.55;;
49590;SDS011;35496;-21.974;-46.800;2023-07-02T04:36:02;7.80;;;5.63;;
49590;SDS011;35496;-21.974;-46.800;2023-07-02T04:38:28;8.35;;;5.75;;
49590;SDS011;35496;-21.974;-46.800;2023-07-02T04:40:54;9.15;;;5.32;;
49590;SDS011;35496;-21.974;-46.800;2023-07-02T04:43:23;7.68;;;5.97;;
49590;SDS011;35496;-21.974;-46.800;2023-07-02T04:45:49;9.63;;;6.28;;
49590;SDS011;35496;-21.974;-46.800;2023-07-02T04:48:15;12.50;;;7.00;;
49590;SDS011;35496;-21.974;-46.800;2023-07-02T04:50:41;8.02;;;7.25;;
49590;SDS011;35496;-21.974;-46.800;2023-07-02T04:53:07;8.10;;;6.03;;
49590;SDS011;35496;-21.974;-46.800;2023-07-02T04:55:33;11.55;;;10.10;;
49590;SDS011;35496;-21.974;-46.800;2023-07-02T04:57:59;13.10;;;10.75;;
49590;SDS011;35496;-21.974;-46.800;2023-07-02T05:00:25;13.05;;;11.18;;
49590;SDS011;35496;-21.974;-46.800;2023-07-02T05:02:51;14.18;;;12.32;;
49590;SDS011;35496;-21.974;-46.800;2023-07-02T05:05:17;15.63;;;11.52;;
49590;SDS011;35496;-21.974;-46.800;2023-07-02T05:07:43;13.90;;;9.95;;
49590;SDS011;35496;-21.974;-46.800;2023-07-02T05:10:10;11.50;;;8.93;;
49590;SDS011;35496;-21.974;-46.800;2023-07-02T05:12:36;15.15;;;8.73;;
49590;SDS011;35496;-21.974;-46.800;2023-07-02T05:15:02;13.25;;;7.93;;
49590;SDS011;35496;-21.974;-46.800;2023-07-02T05:17:28;9.32;;;7.70;;
49590;SDS011;35496;-21.974;-46.800;2023-07-02T05:19:54;8.23;;;6.50;;
49590;SDS011;35496;-21.974;-46.800;2023-07-02T05:22:21;7.68;;;6.03;;
49590;SDS011;35496;-21.974;-46.800;2023-07-02T05:24:47;9.23;;;6.75;;
49590;SDS011;35496;-21.974;-46.800;2023-07-02T05:27:13;6.10;;;5.35;;
49590;SDS011;35496;-21.974;-46.800;2023-07-02T05:29:39;6.25;;;5.22;;
49590;SDS011;35496;-21.974;-46.800;2023-07-02T05:32:06;7.00;;;6.28;;
49590;SDS011;35496;-21.974;-46.800;2023-07-02T05:34:32;10.50;;;7.32;;
49590;SDS011;35496;-21.974;-46.800;2023-07-02T05:36:58;8.70;;;5.25;;
49590;SDS011;35496;-21.974;-46.800;2023-07-02T05:39:24;8.25;;;6.45;;
49590;SDS011;35496;-21.974;-46.800;2023-07-02T05:41:50;7.95;;;5.82;;
49590;SDS011;35496;-21.974;-46.800;2023-07-02T05:44:16;6.97;;;5.72;;
49590;SDS011;35496;-21.974;-46.800;2023-07-02T05:46:42;6.70;;;4.68;;
49590;SDS011;35496;-21.974;-46.800;2023-07-02T05:49:08;7.32;;;5.43;;
49590;SDS011;35496;-21.974;-46.800;2023-07-02T05:51:34;8.25;;;4.75;;
49590;SDS011;35496;-21.974;-46.800;2023-07-02T05:54:00;11.68;;;5.93;;
49590;SDS011;35496;-21.974;-46.800;2023-07-02T05:56:26;14.07;;;7.20;;
49590;SDS011;35496;-21.974;-46.800;2023-07-02T05:58:52;18.75;;;10.93;;
49590;SDS011;35496;-21.974;-46.800;2023-07-02T06:01:18;17.27;;;12.35;;
49590;SDS011;35496;-21.974;-46.800;2023-07-02T06:03:44;19.52;;;12.35;;
49590;SDS011;35496;-21.974;-46.800;2023-07-02T06:06:13;14.45;;;11.13;;
49590;SDS011;35496;-21.974;-46.800;2023-07-02T06:08:39;17.95;;;12.43;;
49590;SDS011;35496;-21.974;-46.800;2023-07-02T06:11:05;18.30;;;12.55;;
49590;SDS011;35496;-21.974;-46.800;2023-07-02T06:13:31;23.75;;;12.05;;
49590;SDS011;35496;-21.974;-46.800;2023-07-02T06:15:57;18.73;;;11.40;;
49590;SDS011;35496;-21.974;-46.800;2023-07-02T06:18:23;15.82;;;11.98;;
49590;SDS011;35496;-21.974;-46.800;2023-07-02T06:20:50;15.07;;;11.20;;
49590;SDS011;35496;-21.974;-46.800;2023-07-02T06:23:16;14.15;;;9.48;;
49590;SDS011;35496;-21.974;-46.800;2023-07-02T06:25:42;14.65;;;10.77;;
49590;SDS011;35496;-21.974;-46.800;2023-07-02T06:28:09;18.63;;;10.80;;
49590;SDS011;35496;-21.974;-46.800;2023-07-02T06:30:35;16.38;;;11.88;;
49590;SDS011;35496;-21.974;-46.800;2023-07-02T06:33:01;15.15;;;10.50;;
49590;SDS011;35496;-21.974;-46.800;2023-07-02T06:35:27;20.27;;;11.77;;
49590;SDS011;35496;-21.974;-46.800;2023-07-02T06:37:53;15.30;;;12.13;;
49590;SDS011;35496;-21.974;-46.800;2023-07-02T06:40:20;15.80;;;11.00;;
49590;SDS011;35496;-21.974;-46.800;2023-07-02T06:42:48;15.82;;;10.60;;
49590;SDS011;35496;-21.974;-46.800;2023-07-02T06:45:14;18.58;;;11.27;;
49590;SDS011;35496;-21.974;-46.800;2023-07-02T06:47:40;13.48;;;10.55;;
49590;SDS011;35496;-21.974;-46.800;2023-07-02T06:50:06;21.75;;;13.63;;
49590;SDS011;35496;-21.974;-46.800;2023-07-02T06:52:32;22.15;;;13.85;;
49590;SDS011;35496;-21.974;-46.800;2023-07-02T06:54:59;18.55;;;13.32;;
49590;SDS011;35496;-21.974;-46.800;2023-07-02T06:57:25;20.90;;;12.32;;
49590;SDS011;35496;-21.974;-46.800;2023-07-02T06:59:51;17.00;;;13.73;;
49590;SDS011;35496;-21.974;-46.800;2023-07-02T07:02:17;24.20;;;14.07;;
49590;SDS011;35496;-21.974;-46.800;2023-07-02T07:04:43;20.10;;;12.95;;
49590;SDS011;35496;-21.974;-46.800;2023-07-02T07:07:09;17.58;;;13.18;;
49590;SDS011;35496;-21.974;-46.800;2023-07-02T07:09:36;15.95;;;11.85;;
49590;SDS011;35496;-21.974;-46.800;2023-07-02T07:12:02;15.10;;;11.43;;
49590;SDS011;35496;-21.974;-46.800;2023-07-02T07:14:28;14.10;;;8.90;;
49590;SDS011;35496;-21.974;-46.800;2023-07-02T07:16:54;15.38;;;11.05;;
49590;SDS011;35496;-21.974;-46.800;2023-07-02T07:19:20;15.60;;;9.65;;
49590;SDS011;35496;-21.974;-46.800;2023-07-02T07:21:46;15.45;;;9.93;;
49590;SDS011;35496;-21.974;-46.800;2023-07-02T07:24:12;15.13;;;8.50;;
49590;SDS011;35496;-21.974;-46.800;2023-07-02T07:26:38;17.42;;;9.63;;
49590;SDS011;35496;-21.974;-46.800;2023-07-02T07:29:04;11.25;;;7.50;;
49590;SDS011;35496;-21.974;-46.800;2023-07-02T07:31:30;15.38;;;11.25;;
49590;SDS011;35496;-21.974;-46.800;2023-07-02T07:33:56;15.57;;;11.93;;
49590;SDS011;35496;-21.974;-46.800;2023-07-02T07:36:22;25.00;;;12.35;;
49590;SDS011;35496;-21.974;-46.800;2023-07-02T07:38:48;11.48;;;9.20;;
49590;SDS011;35496;-21.974;-46.800;2023-07-02T07:41:14;16.30;;;9.63;;
49590;SDS011;35496;-21.974;-46.800;2023-07-02T07:43:40;10.55;;;7.30;;
49590;SDS011;35496;-21.974;-46.800;2023-07-02T07:46:06;11.45;;;8.07;;
49590;SDS011;35496;-21.974;-46.800;2023-07-02T07:48:33;15.75;;;10.98;;
49590;SDS011;35496;-21.974;-46.800;2023-07-02T07:50:59;15.75;;;12.18;;
49590;SDS011;35496;-21.974;-46.800;2023-07-02T07:53:25;20.55;;;13.43;;
49590;SDS011;35496;-21.974;-46.800;2023-07-02T07:55:51;19.73;;;11.18;;
49590;SDS011;35496;-21.974;-46.800;2023-07-02T07:58:17;9.35;;;7.60;;
49590;SDS011;35496;-21.974;-46.800;2023-07-02T08:00:43;11.52;;;6.88;;
49590;SDS011;35496;-21.974;-46.800;2023-07-02T08:03:10;12.18;;;7.90;;
49590;SDS011;35496;-21.974;-46.800;2023-07-02T08:05:36;11.82;;;7.65;;
49590;SDS011;35496;-21.974;-46.800;2023-07-02T08:08:02;8.82;;;6.50;;
49590;SDS011;35496;-21.974;-46.800;2023-07-02T08:10:29;9.85;;;7.15;;
49590;SDS011;35496;-21.974;-46.800;2023-07-02T08:12:55;6.93;;;6.20;;
49590;SDS011;35496;-21.974;-46.800;2023-07-02T08:15:21;10.40;;;7.00;;
49590;SDS011;35496;-21.974;-46.800;2023-07-02T08:17:47;9.75;;;7.18;;
49590;SDS011;35496;-21.974;-46.800;2023-07-02T08:20:13;8.57;;;5.22;;
49590;SDS011;35496;-21.974;-46.800;2023-07-02T08:22:40;14.05;;;7.65;;
49590;SDS011;35496;-21.974;-46.800;2023-07-02T08:25:06;8.25;;;6.78;;
49590;SDS011;35496;-21.974;-46.800;2023-07-02T08:27:32;8.45;;;6.47;;
49590;SDS011;35496;-21.974;-46.800;2023-07-02T08:29:58;6.97;;;5.15;;
49590;SDS011;35496;-21.974;-46.800;2023-07-02T08:32:24;6.18;;;5.55;;
49590;SDS011;35496;-21.974;-46.800;2023-07-02T08:34:51;8.90;;;6.50;;
49590;SDS011;35496;-21.974;-46.800;2023-07-02T08:37:17;9.25;;;6.95;;
49590;SDS011;35496;-21.974;-46.800;2023-07-02T08:39:43;5.47;;;4.90;;
49590;SDS011;35496;-21.974;-46.800;2023-07-02T08:42:09;15.85;;;10.40;;
49590;SDS011;35496;-21.974;-46.800;2023-07-02T08:44:35;13.93;;;10.65;;
49590;SDS011;35496;-21.974;-46.800;2023-07-02T08:47:02;11.75;;;9.60;;
49590;SDS011;35496;-21.974;-46.800;2023-07-02T08:49:28;17.40;;;11.07;;
49590;SDS011;35496;-21.974;-46.800;2023-07-02T08:51:54;15.25;;;11.35;;
49590;SDS011;35496;-21.974;-46.800;2023-07-02T08:54:20;16.30;;;11.15;;
49590;SDS011;35496;-21.974;-46.800;2023-07-02T08:56:47;15.25;;;11.70;;
49590;SDS011;35496;-21.974;-46.800;2023-07-02T08:59:13;18.30;;;11.90;;
49590;SDS011;35496;-21.974;-46.800;2023-07-02T09:01:49;21.42;;;12.48;;
49590;SDS011;35496;-21.974;-46.800;2023-07-02T09:04:17;21.67;;;11.43;;
49590;SDS011;35496;-21.974;-46.800;2023-07-02T09:06:44;26.08;;;11.40;;
49590;SDS011;35496;-21.974;-46.800;2023-07-02T09:09:11;16.17;;;11.00;;
49590;SDS011;35496;-21.974;-46.800;2023-07-02T09:11:46;20.20;;;13.73;;
49590;SDS011;35496;-21.974;-46.800;2023-07-02T09:14:22;17.90;;;11.95;;
49590;SDS011;35496;-21.974;-46.800;2023-07-02T09:16:49;18.70;;;12.43;;
49590;SDS011;35496;-21.974;-46.800;2023-07-02T09:19:15;19.15;;;12.95;;
49590;SDS011;35496;-21.974;-46.800;2023-07-02T09:21:43;16.75;;;13.00;;
49590;SDS011;35496;-21.974;-46.800;2023-07-02T09:26:49;15.02;;;12.70;;
49590;SDS011;35496;-21.974;-46.800;2023-07-02T09:29:26;19.77;;;12.25;;
49590;SDS011;35496;-21.974;-46.800;2023-07-02T09:31:55;18.85;;;12.10;;
49590;SDS011;35496;-21.974;-46.800;2023-07-02T09:34:26;26.85;;;12.55;;
49590;SDS011;35496;-21.974;-46.800;2023-07-02T09:36:52;29.13;;;14.13;;
49590;SDS011;35496;-21.974;-46.800;2023-07-02T09:39:19;17.38;;;12.82;;
49590;SDS011;35496;-21.974;-46.800;2023-07-02T09:41:49;20.70;;;13.80;;
49590;SDS011;35496;-21.974;-46.800;2023-07-02T09:44:16;20.45;;;13.48;;
49590;SDS011;35496;-21.974;-46.800;2023-07-02T09:46:45;17.48;;;13.00;;
49590;SDS011;35496;-21.974;-46.800;2023-07-02T09:49:14;18.98;;;12.00;;
49590;SDS011;35496;-21.974;-46.800;2023-07-02T09:51:41;16.77;;;11.27;;
49590;SDS011;35496;-21.974;-46.800;2023-07-02T09:54:08;17.38;;;12.63;;
49590;SDS011;35496;-21.974;-46.800;2023-07-02T09:56:34;17.58;;;13.50;;
49590;SDS011;35496;-21.974;-46.800;2023-07-02T09:59:00;23.08;;;14.63;;
49590;SDS011;35496;-21.974;-46.800;2023-07-02T10:01:26;21.48;;;14.30;;
49590;SDS011;35496;-21.974;-46.800;2023-07-02T10:03:52;17.48;;;13.00;;
49590;SDS011;35496;-21.974;-46.800;2023-07-02T10:06:18;18.00;;;13.30;;
49590;SDS011;35496;-21.974;-46.800;2023-07-02T10:08:54;17.15;;;13.40;;
49590;SDS011;35496;-21.974;-46.800;2023-07-02T10:11:20;20.38;;;13.93;;
49590;SDS011;35496;-21.974;-46.800;2023-07-02T10:13:46;18.20;;;11.63;;
49590;SDS011;35496;-21.974;-46.800;2023-07-02T10:16:23;20.05;;;13.52;;
49590;SDS011;35496;-21.974;-46.800;2023-07-02T10:18:49;17.02;;;11.93;;
49590;SDS011;35496;-21.974;-46.800;2023-07-02T10:21:15;21.30;;;13.40;;
49590;SDS011;35496;-21.974;-46.800;2023-07-02T10:23:42;19.63;;;13.63;;
49590;SDS011;35496;-21.974;-46.800;2023-07-02T10:26:15;23.50;;;13.25;;
49590;SDS011;35496;-21.974;-46.800;2023-07-02T10:28:41;19.60;;;12.73;;
49590;SDS011;35496;-21.974;-46.800;2023-07-02T10:31:18;16.17;;;10.75;;
49590;SDS011;35496;-21.974;-46.800;2023-07-02T10:33:45;13.43;;;10.85;;
49590;SDS011;35496;-21.974;-46.800;2023-07-02T10:36:18;14.93;;;11.10;;
49590;SDS011;35496;-21.974;-46.800;2023-07-02T10:38:45;15.73;;;10.70;;
49590;SDS011;35496;-21.974;-46.800;2023-07-02T10:41:12;15.18;;;10.07;;
49590;SDS011;35496;-21.974;-46.800;2023-07-02T10:43:38;12.13;;;9.40;;
49590;SDS011;35496;-21.974;-46.800;2023-07-02T10:46:04;12.90;;;10.40;;
49590;SDS011;35496;-21.974;-46.800;2023-07-02T10:48:30;12.43;;;11.00;;
49590;SDS011;35496;-21.974;-46.800;2023-07-02T10:50:56;18.25;;;10.60;;
49590;SDS011;35496;-21.974;-46.800;2023-07-02T10:53:23;13.27;;;10.48;;
49590;SDS011;35496;-21.974;-46.800;2023-07-02T10:55:55;16.17;;;10.10;;
49590;SDS011;35496;-21.974;-46.800;2023-07-02T10:58:22;25.85;;;11.65;;
49590;SDS011;35496;-21.974;-46.800;2023-07-02T11:00:49;13.75;;;9.55;;
49590;SDS011;35496;-21.974;-46.800;2023-07-02T11:03:19;12.55;;;9.88;;
49590;SDS011;35496;-21.974;-46.800;2023-07-02T11:05:45;20.27;;;11.38;;
49590;SDS011;35496;-21.974;-46.800;2023-07-02T11:08:12;14.07;;;11.20;;
49590;SDS011;35496;-21.974;-46.800;2023-07-02T11:10:38;12.75;;;10.07;;
49590;SDS011;35496;-21.974;-46.800;2023-07-02T11:13:17;11.43;;;8.90;;
49590;SDS011;35496;-21.974;-46.800;2023-07-02T11:15:44;12.82;;;9.50;;
49590;SDS011;35496;-21.974;-46.800;2023-07-02T11:18:14;14.02;;;10.15;;
49590;SDS011;35496;-21.974;-46.800;2023-07-02T11:20:41;9.43;;;8.50;;
49590;SDS011;35496;-21.974;-46.800;2023-07-02T11:23:17;11.65;;;8.57;;
49590;SDS011;35496;-21.974;-46.800;2023-07-02T11:25:53;13.30;;;8.60;;
49590;SDS011;35496;-21.974;-46.800;2023-07-02T11:28:20;9.23;;;7.28;;
49590;SDS011;35496;-21.974;-46.800;2023-07-02T11:30:46;14.32;;;9.98;;
49590;SDS011;35496;-21.974;-46.800;2023-07-02T11:33:12;9.75;;;8.48;;
49590;SDS011;35496;-21.974;-46.800;2023-07-02T11:35:38;11.50;;;9.05;;
49590;SDS011;35496;-21.974;-46.800;2023-07-02T11:38:04;10.50;;;8.43;;
49590;SDS011;35496;-21.974;-46.800;2023-07-02T11:40:30;9.57;;;8.27;;
49590;SDS011;35496;-21.974;-46.800;2023-07-02T11:42:56;9.50;;;8.50;;
49590;SDS011;35496;-21.974;-46.800;2023-07-02T11:45:22;12.98;;;9.57;;
49590;SDS011;35496;-21.974;-46.800;2023-07-02T11:47:48;14.63;;;8.68;;
49590;SDS011;35496;-21.974;-46.800;2023-07-02T11:50:15;11.55;;;9.60;;
49590;SDS011;35496;-21.974;-46.800;2023-07-02T11:52:41;8.77;;;8.07;;
49590;SDS011;35496;-21.974;-46.800;2023-07-02T11:55:07;9.60;;;7.75;;
49590;SDS011;35496;-21.974;-46.800;2023-07-02T11:57:33;14.63;;;9.77;;
49590;SDS011;35496;-21.974;-46.800;2023-07-02T11:59:59;13.95;;;9.73;;
49590;SDS011;35496;-21.974;-46.800;2023-07-02T12:02:25;14.40;;;9.10;;
49590;SDS011;35496;-21.974;-46.800;2023-07-02T12:04:51;10.93;;;8.85;;
49590;SDS011;35496;-21.974;-46.800;2023-07-02T12:07:17;9.85;;;8.90;;
49590;SDS011;35496;-21.974;-46.800;2023-07-02T12:09:43;12.00;;;9.93;;
49590;SDS011;35496;-21.974;-46.800;2023-07-02T12:12:10;11.65;;;10.32;;
49590;SDS011;35496;-21.974;-46.800;2023-07-02T12:14:36;12.80;;;8.80;;
49590;SDS011;35496;-21.974;-46.800;2023-07-02T12:17:03;11.35;;;8.27;;
49590;SDS011;35496;-21.974;-46.800;2023-07-02T12:19:29;10.77;;;9.60;;
49590;SDS011;35496;-21.974;-46.800;2023-07-02T12:21:56;11.15;;;9.10;;
49590;SDS011;35496;-21.974;-46.800;2023-07-02T12:24:22;12.07;;;9.25;;
49590;SDS011;35496;-21.974;-46.800;2023-07-02T12:26:48;15.30;;;9.15;;
49590;SDS011;35496;-21.974;-46.800;2023-07-02T12:29:14;15.52;;;10.32;;
49590;SDS011;35496;-21.974;-46.800;2023-07-02T12:31:40;11.57;;;9.85;;
49590;SDS011;35496;-21.974;-46.800;2023-07-02T12:34:06;11.20;;;9.50;;
49590;SDS011;35496;-21.974;-46.800;2023-07-02T12:36:32;11.55;;;8.88;;
49590;SDS011;35496;-21.974;-46.800;2023-07-02T12:38:58;15.05;;;9.93;;
49590;SDS011;35496;-21.974;-46.800;2023-07-02T12:41:24;14.98;;;9.13;;
49590;SDS011;35496;-21.974;-46.800;2023-07-02T12:43:50;13.02;;;8.35;;
49590;SDS011;35496;-21.974;-46.800;2023-07-02T12:46:16;9.13;;;8.23;;
49590;SDS011;35496;-21.974;-46.800;2023-07-02T12:48:42;8.20;;;7.40;;
49590;SDS011;35496;-21.974;-46.800;2023-07-02T12:51:09;12.23;;;9.57;;
49590;SDS011;35496;-21.974;-46.800;2023-07-02T12:53:35;11.48;;;8.10;;
49590;SDS011;35496;-21.974;-46.800;2023-07-02T12:56:01;13.98;;;8.93;;
49590;SDS011;35496;-21.974;-46.800;2023-07-02T12:58:27;11.45;;;10.05;;
49590;SDS011;35496;-21.974;-46.800;2023-07-02T13:00:53;12.55;;;9.13;;
49590;SDS011;35496;-21.974;-46.800;2023-07-02T13:03:20;13.85;;;9.27;;
49590;SDS011;35496;-21.974;-46.800;2023-07-02T13:05:48;14.93;;;8.73;;
49590;SDS011;35496;-21.974;-46.800;2023-07-02T13:08:14;12.88;;;8.70;;
49590;SDS011;35496;-21.974;-46.800;2023-07-02T13:10:40;9.52;;;8.52;;
49590;SDS011;35496;-21.974;-46.800;2023-07-02T13:13:06;16.92;;;8.88;;
49590;SDS011;35496;-21.974;-46.800;2023-07-02T13:15:32;9.77;;;8.55;;
49590;SDS011;35496;-21.974;-46.800;2023-07-02T13:18:00;9.02;;;7.47;;
49590;SDS011;35496;-21.974;-46.800;2023-07-02T13:20:26;10.95;;;8.48;;
49590;SDS011;35496;-21.974;-46.800;2023-07-02T13:22:52;9.00;;;8.00;;
49590;SDS011;35496;-21.974;-46.800;2023-07-02T13:25:18;8.70;;;6.70;;
49590;SDS011;35496;-21.974;-46.800;2023-07-02T13:27:44;9.43;;;6.43;;
49590;SDS011;35496;-21.974;-46.800;2023-07-02T13:30:10;6.65;;;5.80;;
49590;SDS011;35496;-21.974;-46.800;2023-07-02T13:32:36;8.20;;;6.35;;
49590;SDS011;35496;-21.974;-46.800;2023-07-02T13:35:02;8.55;;;6.22;;
49590;SDS011;35496;-21.974;-46.800;2023-07-02T13:37:28;6.22;;;4.28;;
49590;SDS011;35496;-21.974;-46.800;2023-07-02T13:39:54;7.30;;;4.70;;
49590;SDS011;35496;-21.974;-46.800;2023-07-02T13:42:20;5.35;;;4.75;;
49590;SDS011;35496;-21.974;-46.800;2023-07-02T13:44:46;5.70;;;4.38;;
49590;SDS011;35496;-21.974;-46.800;2023-07-02T13:47:13;6.50;;;3.67;;
49590;SDS011;35496;-21.974;-46.800;2023-07-02T13:49:39;6.70;;;3.97;;
49590;SDS011;35496;-21.974;-46.800;2023-07-02T13:52:05;9.10;;;5.05;;
49590;SDS011;35496;-21.974;-46.800;2023-07-02T13:54:31;3.95;;;3.65;;